SVP Hospital Helipad

IN-0212 · 古吉拉特邦, 印度

罗盘
风向 的 风向 270° 直升机
风: 4 kt, 2 beaufort
0 ft 2.000 4.000 6.000 8.000 10.000
Cloud Cloud Cloud Cloud
SCT 2.000
Cloud Cloud Cloud Cloud
SCT 8.000
METAR VAAH 141330Z 27004KT 4000 FU SCT020 SCT080 35/23 Q0996 NOSIG

METAR SVP Hospital Helipad - IN-0212

SVP Hospital Helipad是,印度中的直升机场。 该机场位于纬度23,01968和经度72,57171。 这个机场没有ICAO代码,我们使用IN-0212作为参考。 机场在Mumbai FIR中。

该航空气象观测是针对Sardar Vallabhbhai Patel International Airport在2024年7月14日 19:00, 当地时间进行的。

机场观察

风向为270°,速度为4 kt。

可见度为4 km。

有疏云,零星散落的云朵在2.000 ft的高度 和 疏云,零星散落的云朵在8.000 ft的高度。 没有观察到天花板。

当前天气为抽烟。 温度和风寒是35 °C。 热指数为41。 露点为23 °C,相对湿度为50%。 海平面上的气压为996 hPa (QNH)。

白天

今天,太阳从06:02升起,在19:28降落。 这适用于SVP Hospital Helipad,世界夏令时可能有所不同。 当地时间与世界标准时间之间的时差为+5 小时 30 分钟。 夏令时目前正在进行中。

公司介绍

我们没有关于这个机场的公司信息。

体会

到Vliegles.nl去找飞行课程,跳伞和其他飞行体验。 浏览页面,了解SVP Hospital Helipad附近所有可用的活动。 你也可以使用搜索功能来寻找你所在地附近的特定飞行课程、跳伞或其他飞行体验。

乌云

2.000 ft SCT 疏云,零星散落的云朵
8.000 ft SCT 疏云,零星散落的云朵

温度 & 天气

天气 抽烟
温度 35 °C
露点 23 °C
相对湿度 50%
热度指数 41 °C
Kp-index 1 (0-9)

白天

日出
06:02
中午
12:45
日落
19:28 (5m)

小工具

你想在你的网站上有一个关于SVP Hospital Helipad的当前航空天气(METAR)的小部件吗?

显示HTML代码
报告变更